sensor_id;sensor_type;location;lat;lon;timestamp;P1;durP1;ratioP1;P2;durP2;ratioP2
5967;SDS011;3010;51.028;4.170;2023-04-12T00:01:56;3.43;;;2.53;;
5967;SDS011;3010;51.028;4.170;2023-04-12T00:04:23;4.57;;;1.97;;
5967;SDS011;3010;51.028;4.170;2023-04-12T00:06:50;2.73;;;2.53;;
5967;SDS011;3010;51.028;4.170;2023-04-12T00:09:16;2.93;;;2.67;;
5967;SDS011;3010;51.028;4.170;2023-04-12T00:11:43;5.27;;;2.60;;
5967;SDS011;3010;51.028;4.170;2023-04-12T00:14:09;6.10;;;2.20;;
5967;SDS011;3010;51.028;4.170;2023-04-12T00:16:36;2.57;;;2.17;;
5967;SDS011;3010;51.028;4.170;2023-04-12T00:19:03;2.40;;;2.20;;
5967;SDS011;3010;51.028;4.170;2023-04-12T00:21:29;2.47;;;2.30;;
5967;SDS011;3010;51.028;4.170;2023-04-12T00:23:56;4.47;;;2.65;;
5967;SDS011;3010;51.028;4.170;2023-04-12T00:26:22;4.95;;;2.62;;
5967;SDS011;3010;51.028;4.170;2023-04-12T00:28:49;4.93;;;2.37;;
5967;SDS011;3010;51.028;4.170;2023-04-12T00:31:15;3.23;;;2.30;;
5967;SDS011;3010;51.028;4.170;2023-04-12T00:33:42;3.50;;;2.23;;
5967;SDS011;3010;51.028;4.170;2023-04-12T00:36:09;2.50;;;2.33;;
5967;SDS011;3010;51.028;4.170;2023-04-12T00:38:35;4.20;;;2.40;;
5967;SDS011;3010;51.028;4.170;2023-04-12T00:41:02;2.93;;;2.33;;
5967;SDS011;3010;51.028;4.170;2023-04-12T00:43:28;2.37;;;2.10;;
5967;SDS011;3010;51.028;4.170;2023-04-12T00:45:55;3.10;;;2.13;;
5967;SDS011;3010;51.028;4.170;2023-04-12T00:48:25;3.80;;;2.27;;
5967;SDS011;3010;51.028;4.170;2023-04-12T00:50:51;4.20;;;2.40;;
5967;SDS011;3010;51.028;4.170;2023-04-12T00:53:18;3.37;;;2.20;;
5967;SDS011;3010;51.028;4.170;2023-04-12T00:55:44;3.73;;;2.57;;
5967;SDS011;3010;51.028;4.170;2023-04-12T00:58:11;2.87;;;2.43;;
5967;SDS011;3010;51.028;4.170;2023-04-12T01:00:37;2.53;;;2.10;;
5967;SDS011;3010;51.028;4.170;2023-04-12T01:03:04;2.80;;;2.47;;
5967;SDS011;3010;51.028;4.170;2023-04-12T01:05:31;3.17;;;2.50;;
5967;SDS011;3010;51.028;4.170;2023-04-12T01:08:01;3.95;;;2.87;;
5967;SDS011;3010;51.028;4.170;2023-04-12T01:10:40;2.70;;;2.50;;
5967;SDS011;3010;51.028;4.170;2023-04-12T01:13:21;6.03;;;2.60;;
5967;SDS011;3010;51.028;4.170;2023-04-12T01:15:50;3.80;;;2.70;;
5967;SDS011;3010;51.028;4.170;2023-04-12T01:18:20;2.87;;;2.50;;
5967;SDS011;3010;51.028;4.170;2023-04-12T01:20:45;2.70;;;2.20;;
5967;SDS011;3010;51.028;4.170;2023-04-12T01:28:17;3.40;;;2.40;;
5967;SDS011;3010;51.028;4.170;2023-04-12T01:30:41;5.70;;;3.12;;
5967;SDS011;3010;51.028;4.170;2023-04-12T01:33:09;3.03;;;2.70;;
5967;SDS011;3010;51.028;4.170;2023-04-12T01:35:34;3.23;;;2.50;;
5967;SDS011;3010;51.028;4.170;2023-04-12T01:38:01;3.87;;;2.90;;
5967;SDS011;3010;51.028;4.170;2023-04-12T01:40:28;5.90;;;2.97;;
5967;SDS011;3010;51.028;4.170;2023-04-12T01:43:13;4.30;;;2.53;;
5967;SDS011;3010;51.028;4.170;2023-04-12T01:45:33;5.57;;;2.60;;
5967;SDS011;3010;51.028;4.170;2023-04-12T01:48:00;2.87;;;2.70;;
5967;SDS011;3010;51.028;4.170;2023-04-12T01:50:32;3.77;;;2.40;;
5967;SDS011;3010;51.028;4.170;2023-04-12T01:53:12;7.50;;;2.43;;
5967;SDS011;3010;51.028;4.170;2023-04-12T01:55:35;3.07;;;2.53;;
5967;SDS011;3010;51.028;4.170;2023-04-12T01:58:00;4.10;;;2.93;;
5967;SDS011;3010;51.028;4.170;2023-04-12T02:00:27;3.93;;;2.50;;
5967;SDS011;3010;51.028;4.170;2023-04-12T02:02:54;4.20;;;2.40;;
5967;SDS011;3010;51.028;4.170;2023-04-12T02:05:20;4.57;;;2.57;;
5967;SDS011;3010;51.028;4.170;2023-04-12T02:07:47;8.13;;;3.03;;
5967;SDS011;3010;51.028;4.170;2023-04-12T02:10:13;5.37;;;2.87;;
5967;SDS011;3010;51.028;4.170;2023-04-12T02:12:40;3.47;;;3.03;;
5967;SDS011;3010;51.028;4.170;2023-04-12T02:15:07;3.20;;;2.95;;
5967;SDS011;3010;51.028;4.170;2023-04-12T02:17:33;6.37;;;3.17;;
5967;SDS011;3010;51.028;4.170;2023-04-12T02:20:00;4.43;;;3.43;;
5967;SDS011;3010;51.028;4.170;2023-04-12T02:22:26;4.20;;;2.67;;
5967;SDS011;3010;51.028;4.170;2023-04-12T02:24:53;3.70;;;2.73;;
5967;SDS011;3010;51.028;4.170;2023-04-12T02:27:19;4.17;;;2.90;;
5967;SDS011;3010;51.028;4.170;2023-04-12T02:29:46;3.03;;;2.87;;
5967;SDS011;3010;51.028;4.170;2023-04-12T02:32:13;4.40;;;2.83;;
5967;SDS011;3010;51.028;4.170;2023-04-12T02:34:39;2.73;;;2.47;;
5967;SDS011;3010;51.028;4.170;2023-04-12T02:37:06;3.70;;;2.90;;
5967;SDS011;3010;51.028;4.170;2023-04-12T02:39:32;2.90;;;2.70;;
5967;SDS011;3010;51.028;4.170;2023-04-12T02:41:59;3.33;;;2.40;;
5967;SDS011;3010;51.028;4.170;2023-04-12T02:44:28;2.83;;;2.73;;
5967;SDS011;3010;51.028;4.170;2023-04-12T02:46:52;4.12;;;3.35;;
5967;SDS011;3010;51.028;4.170;2023-04-12T02:49:19;2.80;;;2.43;;
5967;SDS011;3010;51.028;4.170;2023-04-12T02:51:45;5.00;;;2.73;;
5967;SDS011;3010;51.028;4.170;2023-04-12T02:54:12;2.67;;;2.47;;
5967;SDS011;3010;51.028;4.170;2023-04-12T02:56:38;4.33;;;3.10;;
5967;SDS011;3010;51.028;4.170;2023-04-12T02:59:05;6.07;;;3.30;;
5967;SDS011;3010;51.028;4.170;2023-04-12T03:01:32;4.57;;;3.42;;
5967;SDS011;3010;51.028;4.170;2023-04-12T03:03:58;3.20;;;3.00;;
5967;SDS011;3010;51.028;4.170;2023-04-12T03:06:25;4.22;;;3.30;;
5967;SDS011;3010;51.028;4.170;2023-04-12T03:08:51;4.43;;;2.73;;
5967;SDS011;3010;51.028;4.170;2023-04-12T03:11:18;2.97;;;2.77;;
5967;SDS011;3010;51.028;4.170;2023-04-12T03:13:45;4.05;;;3.20;;
5967;SDS011;3010;51.028;4.170;2023-04-12T03:16:21;3.63;;;2.90;;
5967;SDS011;3010;51.028;4.170;2023-04-12T03:18:49;5.73;;;2.80;;
5967;SDS011;3010;51.028;4.170;2023-04-12T03:21:16;2.73;;;2.63;;
5967;SDS011;3010;51.028;4.170;2023-04-12T03:23:42;2.93;;;2.53;;
5967;SDS011;3010;51.028;4.170;2023-04-12T03:26:09;2.67;;;2.40;;
5967;SDS011;3010;51.028;4.170;2023-04-12T03:28:36;2.67;;;2.47;;
5967;SDS011;3010;51.028;4.170;2023-04-12T03:31:02;2.93;;;2.77;;
5967;SDS011;3010;51.028;4.170;2023-04-12T03:33:29;3.27;;;3.07;;
5967;SDS011;3010;51.028;4.170;2023-04-12T03:35:55;3.40;;;2.50;;
5967;SDS011;3010;51.028;4.170;2023-04-12T03:38:22;2.77;;;2.57;;
5967;SDS011;3010;51.028;4.170;2023-04-12T03:40:48;2.83;;;2.63;;
5967;SDS011;3010;51.028;4.170;2023-04-12T03:43:15;3.30;;;3.10;;
5967;SDS011;3010;51.028;4.170;2023-04-12T03:45:42;4.45;;;3.53;;
5967;SDS011;3010;51.028;4.170;2023-04-12T03:48:08;2.90;;;2.70;;
5967;SDS011;3010;51.028;4.170;2023-04-12T03:50:35;3.70;;;3.35;;
5967;SDS011;3010;51.028;4.170;2023-04-12T03:53:01;3.70;;;3.40;;
5967;SDS011;3010;51.028;4.170;2023-04-12T03:55:28;4.00;;;3.27;;
5967;SDS011;3010;51.028;4.170;2023-04-12T03:57:55;4.00;;;3.27;;
5967;SDS011;3010;51.028;4.170;2023-04-12T04:00:21;3.90;;;3.57;;
5967;SDS011;3010;51.028;4.170;2023-04-12T04:02:48;7.57;;;3.73;;
5967;SDS011;3010;51.028;4.170;2023-04-12T04:05:14;3.47;;;3.10;;
5967;SDS011;3010;51.028;4.170;2023-04-12T04:07:41;3.90;;;3.57;;
5967;SDS011;3010;51.028;4.170;2023-04-12T04:10:08;3.73;;;3.43;;
5967;SDS011;3010;51.028;4.170;2023-04-12T04:12:34;4.90;;;3.80;;
5967;SDS011;3010;51.028;4.170;2023-04-12T04:15:01;4.23;;;3.93;;
5967;SDS011;3010;51.028;4.170;2023-04-12T04:17:27;3.80;;;3.60;;
5967;SDS011;3010;51.028;4.170;2023-04-12T04:19:54;3.67;;;3.33;;
5967;SDS011;3010;51.028;4.170;2023-04-12T04:22:20;3.83;;;3.50;;
5967;SDS011;3010;51.028;4.170;2023-04-12T04:24:47;4.03;;;3.73;;
5967;SDS011;3010;51.028;4.170;2023-04-12T04:27:14;4.30;;;3.90;;
5967;SDS011;3010;51.028;4.170;2023-04-12T04:29:40;4.33;;;3.53;;
5967;SDS011;3010;51.028;4.170;2023-04-12T04:32:07;4.40;;;4.10;;
5967;SDS011;3010;51.028;4.170;2023-04-12T04:34:33;3.80;;;3.50;;
5967;SDS011;3010;51.028;4.170;2023-04-12T04:37:00;3.40;;;3.30;;
5967;SDS011;3010;51.028;4.170;2023-04-12T04:39:27;3.13;;;3.03;;
5967;SDS011;3010;51.028;4.170;2023-04-12T04:41:53;4.50;;;3.20;;
5967;SDS011;3010;51.028;4.170;2023-04-12T04:44:20;4.30;;;3.50;;
5967;SDS011;3010;51.028;4.170;2023-04-12T04:46:46;3.63;;;3.43;;
5967;SDS011;3010;51.028;4.170;2023-04-12T04:49:13;4.50;;;3.80;;
5967;SDS011;3010;51.028;4.170;2023-04-12T04:51:39;5.17;;;3.97;;
5967;SDS011;3010;51.028;4.170;2023-04-12T04:54:06;4.63;;;3.50;;
5967;SDS011;3010;51.028;4.170;2023-04-12T04:56:33;3.87;;;3.33;;
5967;SDS011;3010;51.028;4.170;2023-04-12T04:58:59;3.90;;;3.20;;
5967;SDS011;3010;51.028;4.170;2023-04-12T05:01:26;6.70;;;4.17;;
5967;SDS011;3010;51.028;4.170;2023-04-12T05:03:52;4.23;;;3.77;;
5967;SDS011;3010;51.028;4.170;2023-04-12T05:06:19;7.37;;;4.20;;
5967;SDS011;3010;51.028;4.170;2023-04-12T05:08:45;6.63;;;4.40;;
5967;SDS011;3010;51.028;4.170;2023-04-12T05:11:12;11.87;;;5.30;;
5967;SDS011;3010;51.028;4.170;2023-04-12T05:13:39;10.40;;;5.75;;
5967;SDS011;3010;51.028;4.170;2023-04-12T05:16:06;11.57;;;5.50;;
5967;SDS011;3010;51.028;4.170;2023-04-12T05:18:32;9.63;;;4.70;;
5967;SDS011;3010;51.028;4.170;2023-04-12T05:21:02;8.37;;;4.40;;
5967;SDS011;3010;51.028;4.170;2023-04-12T05:23:28;18.03;;;5.17;;
5967;SDS011;3010;51.028;4.170;2023-04-12T05:25:54;8.83;;;5.17;;
5967;SDS011;3010;51.028;4.170;2023-04-12T05:28:21;8.33;;;4.73;;
5967;SDS011;3010;51.028;4.170;2023-04-12T05:30:47;12.63;;;5.40;;
5967;SDS011;3010;51.028;4.170;2023-04-12T05:33:14;9.93;;;5.10;;
5967;SDS011;3010;51.028;4.170;2023-04-12T05:35:41;9.33;;;5.43;;
5967;SDS011;3010;51.028;4.170;2023-04-12T05:38:07;13.27;;;6.23;;
5967;SDS011;3010;51.028;4.170;2023-04-12T05:40:34;12.07;;;5.27;;
5967;SDS011;3010;51.028;4.170;2023-04-12T05:43:00;7.03;;;5.00;;
5967;SDS011;3010;51.028;4.170;2023-04-12T05:45:27;14.10;;;5.60;;
5967;SDS011;3010;51.028;4.170;2023-04-12T05:47:54;7.53;;;5.17;;
5967;SDS011;3010;51.028;4.170;2023-04-12T05:50:20;11.88;;;6.55;;
5967;SDS011;3010;51.028;4.170;2023-04-12T05:52:47;15.77;;;5.27;;
5967;SDS011;3010;51.028;4.170;2023-04-12T05:55:14;14.57;;;5.13;;
5967;SDS011;3010;51.028;4.170;2023-04-12T05:57:40;10.37;;;5.03;;
5967;SDS011;3010;51.028;4.170;2023-04-12T06:00:07;9.97;;;4.60;;
5967;SDS011;3010;51.028;4.170;2023-04-12T06:02:33;18.73;;;5.23;;
5967;SDS011;3010;51.028;4.170;2023-04-12T06:05:00;12.23;;;4.67;;
5967;SDS011;3010;51.028;4.170;2023-04-12T06:07:26;8.13;;;4.23;;
5967;SDS011;3010;51.028;4.170;2023-04-12T06:09:53;15.23;;;4.30;;
5967;SDS011;3010;51.028;4.170;2023-04-12T06:12:19;12.03;;;4.50;;
5967;SDS011;3010;51.028;4.170;2023-04-12T06:14:46;15.57;;;4.60;;
5967;SDS011;3010;51.028;4.170;2023-04-12T06:17:13;15.17;;;4.70;;
5967;SDS011;3010;51.028;4.170;2023-04-12T06:19:39;7.90;;;4.27;;
5967;SDS011;3010;51.028;4.170;2023-04-12T06:22:06;13.47;;;4.10;;
5967;SDS011;3010;51.028;4.170;2023-04-12T06:24:32;8.47;;;5.10;;
5967;SDS011;3010;51.028;4.170;2023-04-12T06:26:59;15.65;;;5.80;;
5967;SDS011;3010;51.028;4.170;2023-04-12T06:29:26;14.00;;;4.20;;
5967;SDS011;3010;51.028;4.170;2023-04-12T06:31:52;8.20;;;3.77;;
5967;SDS011;3010;51.028;4.170;2023-04-12T06:34:19;12.83;;;4.13;;
5967;SDS011;3010;51.028;4.170;2023-04-12T06:36:45;8.03;;;4.13;;
5967;SDS011;3010;51.028;4.170;2023-04-12T06:39:12;12.40;;;4.13;;
5967;SDS011;3010;51.028;4.170;2023-04-12T06:41:39;20.70;;;4.90;;
5967;SDS011;3010;51.028;4.170;2023-04-12T06:44:05;16.05;;;4.60;;
5967;SDS011;3010;51.028;4.170;2023-04-12T06:46:32;8.37;;;3.50;;
5967;SDS011;3010;51.028;4.170;2023-04-12T06:48:58;8.67;;;3.07;;
5967;SDS011;3010;51.028;4.170;2023-04-12T06:51:25;12.63;;;3.57;;
5967;SDS011;3010;51.028;4.170;2023-04-12T06:53:51;14.60;;;4.13;;
5967;SDS011;3010;51.028;4.170;2023-04-12T06:56:18;12.05;;;4.80;;
5967;SDS011;3010;51.028;4.170;2023-04-12T06:58:45;12.00;;;3.70;;
5967;SDS011;3010;51.028;4.170;2023-04-12T07:01:11;12.13;;;4.55;;
5967;SDS011;3010;51.028;4.170;2023-04-12T07:03:38;15.27;;;4.82;;
5967;SDS011;3010;51.028;4.170;2023-04-12T07:06:04;9.83;;;3.70;;
5967;SDS011;3010;51.028;4.170;2023-04-12T07:08:31;11.93;;;3.60;;
5967;SDS011;3010;51.028;4.170;2023-04-12T07:10:58;11.73;;;3.90;;
5967;SDS011;3010;51.028;4.170;2023-04-12T07:13:24;10.87;;;4.53;;
5967;SDS011;3010;51.028;4.170;2023-04-12T07:15:51;14.83;;;4.03;;
5967;SDS011;3010;51.028;4.170;2023-04-12T07:18:17;6.73;;;3.50;;
5967;SDS011;3010;51.028;4.170;2023-04-12T07:20:47;8.33;;;3.83;;
5967;SDS011;3010;51.028;4.170;2023-04-12T07:23:13;12.03;;;3.60;;
5967;SDS011;3010;51.028;4.170;2023-04-12T07:25:40;15.87;;;3.77;;
5967;SDS011;3010;51.028;4.170;2023-04-12T07:28:07;13.50;;;4.33;;
5967;SDS011;3010;51.028;4.170;2023-04-12T07:30:33;17.83;;;4.23;;
5967;SDS011;3010;51.028;4.170;2023-04-12T07:33:00;14.23;;;4.53;;
5967;SDS011;3010;51.028;4.170;2023-04-12T07:35:26;21.98;;;5.12;;
5967;SDS011;3010;51.028;4.170;2023-04-12T07:37:53;15.40;;;4.65;;
5967;SDS011;3010;51.028;4.170;2023-04-12T07:40:20;16.75;;;4.72;;
5967;SDS011;3010;51.028;4.170;2023-04-12T07:42:46;11.63;;;4.17;;
5967;SDS011;3010;51.028;4.170;2023-04-12T07:45:13;20.10;;;4.67;;
5967;SDS011;3010;51.028;4.170;2023-04-12T07:47:39;21.23;;;3.63;;
5967;SDS011;3010;51.028;4.170;2023-04-12T07:50:06;15.83;;;4.27;;
5967;SDS011;3010;51.028;4.170;2023-04-12T07:52:33;14.77;;;4.28;;
5967;SDS011;3010;51.028;4.170;2023-04-12T07:54:59;20.23;;;4.40;;
5967;SDS011;3010;51.028;4.170;2023-04-12T07:57:26;16.47;;;3.70;;
5967;SDS011;3010;51.028;4.170;2023-04-12T07:59:52;9.07;;;3.67;;
5967;SDS011;3010;51.028;4.170;2023-04-12T08:02:19;15.27;;;4.10;;
5967;SDS011;3010;51.028;4.170;2023-04-12T08:04:52;14.07;;;3.30;;
5967;SDS011;3010;51.028;4.170;2023-04-12T08:07:19;13.47;;;4.00;;
5967;SDS011;3010;51.028;4.170;2023-04-12T08:09:45;14.10;;;4.17;;
5967;SDS011;3010;51.028;4.170;2023-04-12T08:12:11;17.60;;;3.80;;
5967;SDS011;3010;51.028;4.170;2023-04-12T08:14:38;14.73;;;4.13;;
5967;SDS011;3010;51.028;4.170;2023-04-12T08:17:05;15.40;;;3.70;;
5967;SDS011;3010;51.028;4.170;2023-04-12T08:19:31;18.20;;;4.03;;
5967;SDS011;3010;51.028;4.170;2023-04-12T08:21:58;11.50;;;3.27;;
5967;SDS011;3010;51.028;4.170;2023-04-12T08:24:24;11.67;;;3.37;;
5967;SDS011;3010;51.028;4.170;2023-04-12T08:26:51;9.00;;;2.53;;
5967;SDS011;3010;51.028;4.170;2023-04-12T08:29:18;10.37;;;2.87;;
5967;SDS011;3010;51.028;4.170;2023-04-12T08:31:44;13.60;;;3.73;;
5967;SDS011;3010;51.028;4.170;2023-04-12T08:34:11;10.70;;;3.10;;
5967;SDS011;3010;51.028;4.170;2023-04-12T08:36:37;9.87;;;2.70;;
5967;SDS011;3010;51.028;4.170;2023-04-12T08:39:04;10.53;;;3.00;;
5967;SDS011;3010;51.028;4.170;2023-04-12T08:41:30;8.53;;;3.60;;
5967;SDS011;3010;51.028;4.170;2023-04-12T08:43:57;13.13;;;3.40;;
5967;SDS011;3010;51.028;4.170;2023-04-12T08:46:24;13.23;;;3.53;;
5967;SDS011;3010;51.028;4.170;2023-04-12T08:48:50;10.83;;;3.20;;
5967;SDS011;3010;51.028;4.170;2023-04-12T08:51:20;8.50;;;3.17;;
5967;SDS011;3010;51.028;4.170;2023-04-12T08:53:46;11.03;;;2.97;;
5967;SDS011;3010;51.028;4.170;2023-04-12T08:56:13;9.80;;;3.70;;
5967;SDS011;3010;51.028;4.170;2023-04-12T08:58:40;3.70;;;2.63;;
5967;SDS011;3010;51.028;4.170;2023-04-12T09:01:09;9.53;;;3.23;;
5967;SDS011;3010;51.028;4.170;2023-04-12T09:03:38;5.47;;;2.90;;
5967;SDS011;3010;51.028;4.170;2023-04-12T09:06:05;8.83;;;3.03;;
5967;SDS011;3010;51.028;4.170;2023-04-12T09:08:31;6.60;;;3.17;;
5967;SDS011;3010;51.028;4.170;2023-04-12T09:10:58;12.80;;;3.50;;
5967;SDS011;3010;51.028;4.170;2023-04-12T09:13:31;4.70;;;2.77;;
5967;SDS011;3010;51.028;4.170;2023-04-12T09:15:57;8.40;;;2.67;;
5967;SDS011;3010;51.028;4.170;2023-04-12T09:18:24;7.83;;;3.00;;
5967;SDS011;3010;51.028;4.170;2023-04-12T09:20:51;10.37;;;3.30;;
5967;SDS011;3010;51.028;4.170;2023-04-12T09:23:20;7.57;;;2.67;;
5967;SDS011;3010;51.028;4.170;2023-04-12T09:25:46;8.47;;;3.23;;
5967;SDS011;3010;51.028;4.170;2023-04-12T09:28:16;6.77;;;3.17;;
5967;SDS011;3010;51.028;4.170;2023-04-12T09:30:45;10.47;;;3.30;;
5967;SDS011;3010;51.028;4.170;2023-04-12T09:33:18;12.50;;;3.00;;
5967;SDS011;3010;51.028;4.170;2023-04-12T09:35:47;6.83;;;2.60;;
5967;SDS011;3010;51.028;4.170;2023-04-12T09:38:14;10.80;;;3.23;;
5967;SDS011;3010;51.028;4.170;2023-04-12T09:40:40;8.83;;;3.23;;
5967;SDS011;3010;51.028;4.170;2023-04-12T09:43:06;11.20;;;3.43;;
5967;SDS011;3010;51.028;4.170;2023-04-12T09:45:34;10.37;;;3.83;;
5967;SDS011;3010;51.028;4.170;2023-04-12T09:48:00;13.80;;;3.30;;
5967;SDS011;3010;51.028;4.170;2023-04-12T09:50:27;10.60;;;3.20;;
5967;SDS011;3010;51.028;4.170;2023-04-12T09:52:53;13.10;;;3.60;;
5967;SDS011;3010;51.028;4.170;2023-04-12T09:55:23;13.27;;;3.55;;
5967;SDS011;3010;51.028;4.170;2023-04-12T09:57:49;9.57;;;2.90;;
5967;SDS011;3010;51.028;4.170;2023-04-12T10:00:16;10.90;;;3.50;;
5967;SDS011;3010;51.028;4.170;2023-04-12T10:02:44;15.43;;;4.07;;
5967;SDS011;3010;51.028;4.170;2023-04-12T10:05:09;11.80;;;3.30;;
5967;SDS011;3010;51.028;4.170;2023-04-12T10:07:35;13.40;;;3.83;;
5967;SDS011;3010;51.028;4.170;2023-04-12T10:10:02;12.98;;;3.87;;
5967;SDS011;3010;51.028;4.170;2023-04-12T10:12:29;13.33;;;3.70;;
5967;SDS011;3010;51.028;4.170;2023-04-12T10:14:55;12.37;;;3.33;;
5967;SDS011;3010;51.028;4.170;2023-04-12T10:17:22;11.93;;;3.50;;
5967;SDS011;3010;51.028;4.170;2023-04-12T10:19:48;13.93;;;2.90;;
5967;SDS011;3010;51.028;4.170;2023-04-12T10:22:15;10.80;;;3.97;;
5967;SDS011;3010;51.028;4.170;2023-04-12T10:24:41;10.20;;;3.30;;
5967;SDS011;3010;51.028;4.170;2023-04-12T10:27:08;8.67;;;2.87;;
5967;SDS011;3010;51.028;4.170;2023-04-12T10:29:35;9.03;;;2.87;;
5967;SDS011;3010;51.028;4.170;2023-04-12T10:32:19;11.40;;;3.33;;
5967;SDS011;3010;51.028;4.170;2023-04-12T10:34:51;7.33;;;2.83;;
5967;SDS011;3010;51.028;4.170;2023-04-12T10:37:17;16.00;;;3.60;;
5967;SDS011;3010;51.028;4.170;2023-04-12T10:39:45;12.57;;;3.40;;
5967;SDS011;3010;51.028;4.170;2023-04-12T10:42:17;12.30;;;3.80;;
5967;SDS011;3010;51.028;4.170;2023-04-12T10:44:53;13.33;;;3.80;;
5967;SDS011;3010;51.028;4.170;2023-04-12T10:50:25;8.93;;;3.63;;
5967;SDS011;3010;51.028;4.170;2023-04-12T10:55:42;14.07;;;3.87;;
5967;SDS011;3010;51.028;4.170;2023-04-12T10:58:08;16.67;;;3.73;;
5967;SDS011;3010;51.028;4.170;2023-04-12T11:03:24;12.93;;;3.70;;
5967;SDS011;3010;51.028;4.170;2023-04-12T11:05:56;11.30;;;3.92;;
5967;SDS011;3010;51.028;4.170;2023-04-12T11:08:22;11.83;;;3.87;;
5967;SDS011;3010;51.028;4.170;2023-04-12T11:10:49;15.37;;;4.20;;
5967;SDS011;3010;51.028;4.170;2023-04-12T11:13:15;10.87;;;3.73;;
5967;SDS011;3010;51.028;4.170;2023-04-12T11:15:42;9.80;;;3.53;;
5967;SDS011;3010;51.028;4.170;2023-04-12T11:18:08;6.47;;;2.80;;
5967;SDS011;3010;51.028;4.170;2023-04-12T11:20:35;9.17;;;3.00;;
5967;SDS011;3010;51.028;4.170;2023-04-12T11:23:02;8.67;;;2.97;;
5967;SDS011;3010;51.028;4.170;2023-04-12T11:25:28;6.17;;;2.70;;
5967;SDS011;3010;51.028;4.170;2023-04-12T11:27:55;6.03;;;2.40;;
5967;SDS011;3010;51.028;4.170;2023-04-12T11:30:23;3.87;;;2.20;;
5967;SDS011;3010;51.028;4.170;2023-04-12T11:32:48;7.93;;;2.80;;
5967;SDS011;3010;51.028;4.170;2023-04-12T11:35:15;9.23;;;3.30;;
5967;SDS011;3010;51.028;4.170;2023-04-12T11:37:42;7.82;;;2.97;;
5967;SDS011;3010;51.028;4.170;2023-04-12T11:40:08;11.00;;;2.73;;
5967;SDS011;3010;51.028;4.170;2023-04-12T11:42:34;5.28;;;2.58;;
5967;SDS011;3010;51.028;4.170;2023-04-12T11:45:01;6.97;;;2.58;;
5967;SDS011;3010;51.028;4.170;2023-04-12T11:47:27;3.67;;;1.60;;
5967;SDS011;3010;51.028;4.170;2023-04-12T11:49:55;1.80;;;1.70;;
5967;SDS011;3010;51.028;4.170;2023-04-12T11:52:21;1.37;;;1.30;;
5967;SDS011;3010;51.028;4.170;2023-04-12T11:54:48;5.33;;;1.83;;
5967;SDS011;3010;51.028;4.170;2023-04-12T11:57:15;2.03;;;1.50;;
5967;SDS011;3010;51.028;4.170;2023-04-12T11:59:42;1.70;;;1.60;;
5967;SDS011;3010;51.028;4.170;2023-04-12T12:02:10;1.57;;;1.17;;
5967;SDS011;3010;51.028;4.170;2023-04-12T12:04:36;1.87;;;1.67;;
5967;SDS011;3010;51.028;4.170;2023-04-12T12:07:03;1.40;;;1.30;;
5967;SDS011;3010;51.028;4.170;2023-04-12T12:09:29;1.67;;;1.17;;
5967;SDS011;3010;51.028;4.170;2023-04-12T12:11:56;2.73;;;1.30;;
5967;SDS011;3010;51.028;4.170;2023-04-12T12:14:22;2.07;;;1.40;;
5967;SDS011;3010;51.028;4.170;2023-04-12T12:16:53;4.47;;;1.57;;
5967;SDS011;3010;51.028;4.170;2023-04-12T12:19:31;2.27;;;1.30;;
5967;SDS011;3010;51.028;4.170;2023-04-12T12:24:35;3.63;;;1.70;;
5967;SDS011;3010;51.028;4.170;2023-04-12T12:27:02;1.93;;;1.80;;
5967;SDS011;3010;51.028;4.170;2023-04-12T12:29:35;2.50;;;1.47;;
5967;SDS011;3010;51.028;4.170;2023-04-12T12:32:01;2.57;;;1.87;;
5967;SDS011;3010;51.028;4.170;2023-04-12T12:34:31;1.50;;;1.50;;
5967;SDS011;3010;51.028;4.170;2023-04-12T12:36:57;2.47;;;1.63;;
5967;SDS011;3010;51.028;4.170;2023-04-12T12:39:23;4.03;;;1.83;;
5967;SDS011;3010;51.028;4.170;2023-04-12T12:41:53;1.93;;;1.63;;
5967;SDS011;3010;51.028;4.170;2023-04-12T12:44:20;4.03;;;2.13;;
5967;SDS011;3010;51.028;4.170;2023-04-12T12:46:46;3.80;;;2.30;;
5967;SDS011;3010;51.028;4.170;2023-04-12T12:49:13;2.87;;;1.57;;
5967;SDS011;3010;51.028;4.170;2023-04-12T12:51:40;3.80;;;1.57;;
5967;SDS011;3010;51.028;4.170;2023-04-12T12:54:06;1.93;;;1.53;;
5967;SDS011;3010;51.028;4.170;2023-04-12T12:56:33;3.37;;;2.10;;
5967;SDS011;3010;51.028;4.170;2023-04-12T12:58:59;3.27;;;1.60;;
5967;SDS011;3010;51.028;4.170;2023-04-12T13:01:26;1.83;;;1.67;;
5967;SDS011;3010;51.028;4.170;2023-04-12T13:03:52;3.73;;;1.40;;
5967;SDS011;3010;51.028;4.170;2023-04-12T13:06:19;2.13;;;1.27;;
5967;SDS011;3010;51.028;4.170;2023-04-12T13:08:45;1.87;;;1.77;;
5967;SDS011;3010;51.028;4.170;2023-04-12T13:11:12;4.85;;;2.15;;
5967;SDS011;3010;51.028;4.170;2023-04-12T13:13:39;4.03;;;1.67;;
5967;SDS011;3010;51.028;4.170;2023-04-12T13:16:05;4.17;;;1.60;;
5967;SDS011;3010;51.028;4.170;2023-04-12T13:18:32;3.87;;;1.90;;
5967;SDS011;3010;51.028;4.170;2023-04-12T13:20:59;3.33;;;1.97;;
5967;SDS011;3010;51.028;4.170;2023-04-12T13:23:25;1.87;;;1.60;;
5967;SDS011;3010;51.028;4.170;2023-04-12T13:25:52;4.43;;;2.63;;
5967;SDS011;3010;51.028;4.170;2023-04-12T13:28:18;4.37;;;2.40;;
5967;SDS011;3010;51.028;4.170;2023-04-12T13:30:45;4.15;;;2.47;;
5967;SDS011;3010;51.028;4.170;2023-04-12T13:33:11;2.97;;;2.20;;
5967;SDS011;3010;51.028;4.170;2023-04-12T13:35:38;5.30;;;2.43;;
5967;SDS011;3010;51.028;4.170;2023-04-12T13:38:05;3.33;;;2.10;;
5967;SDS011;3010;51.028;4.170;2023-04-12T13:40:31;4.68;;;2.47;;
5967;SDS011;3010;51.028;4.170;2023-04-12T13:42:58;7.03;;;2.37;;
5967;SDS011;3010;51.028;4.170;2023-04-12T13:45:24;3.40;;;2.37;;
5967;SDS011;3010;51.028;4.170;2023-04-12T13:47:51;2.17;;;2.03;;
5967;SDS011;3010;51.028;4.170;2023-04-12T13:50:18;3.33;;;2.20;;
5967;SDS011;3010;51.028;4.170;2023-04-12T13:52:44;4.43;;;2.17;;
5967;SDS011;3010;51.028;4.170;2023-04-12T13:55:11;5.10;;;1.80;;
5967;SDS011;3010;51.028;4.170;2023-04-12T13:57:37;5.83;;;2.57;;
5967;SDS011;3010;51.028;4.170;2023-04-12T14:00:04;2.40;;;2.13;;
5967;SDS011;3010;51.028;4.170;2023-04-12T14:02:31;3.70;;;1.90;;
5967;SDS011;3010;51.028;4.170;2023-04-12T14:04:57;3.23;;;1.90;;
5967;SDS011;3010;51.028;4.170;2023-04-12T14:07:24;5.07;;;2.30;;
5967;SDS011;3010;51.028;4.170;2023-04-12T14:09:50;3.40;;;1.97;;
5967;SDS011;3010;51.028;4.170;2023-04-12T14:12:17;3.10;;;2.07;;
5967;SDS011;3010;51.028;4.170;2023-04-12T14:14:44;5.43;;;2.20;;
5967;SDS011;3010;51.028;4.170;2023-04-12T14:17:10;4.53;;;1.57;;
5967;SDS011;3010;51.028;4.170;2023-04-12T14:19:37;2.20;;;1.30;;
5967;SDS011;3010;51.028;4.170;2023-04-12T14:22:03;4.73;;;1.80;;
5967;SDS011;3010;51.028;4.170;2023-04-12T14:24:30;6.30;;;1.50;;
5967;SDS011;3010;51.028;4.170;2023-04-12T14:26:57;5.27;;;1.57;;
5967;SDS011;3010;51.028;4.170;2023-04-12T14:29:23;4.93;;;1.97;;
5967;SDS011;3010;51.028;4.170;2023-04-12T14:31:50;4.40;;;2.00;;
5967;SDS011;3010;51.028;4.170;2023-04-12T14:34:16;3.83;;;1.77;;
5967;SDS011;3010;51.028;4.170;2023-04-12T14:36:43;3.97;;;2.10;;
5967;SDS011;3010;51.028;4.170;2023-04-12T14:39:09;6.57;;;1.83;;
5967;SDS011;3010;51.028;4.170;2023-04-12T14:41:36;6.83;;;2.40;;
5967;SDS011;3010;51.028;4.170;2023-04-12T14:44:03;4.90;;;2.37;;
5967;SDS011;3010;51.028;4.170;2023-04-12T14:46:30;1.83;;;1.73;;
5967;SDS011;3010;51.028;4.170;2023-04-12T14:48:56;4.43;;;1.63;;
5967;SDS011;3010;51.028;4.170;2023-04-12T14:51:22;3.03;;;1.70;;
5967;SDS011;3010;51.028;4.170;2023-04-12T14:53:49;4.13;;;1.90;;
5967;SDS011;3010;51.028;4.170;2023-04-12T14:56:19;2.10;;;1.80;;
5967;SDS011;3010;51.028;4.170;2023-04-12T14:58:45;2.83;;;2.00;;
5967;SDS011;3010;51.028;4.170;2023-04-12T15:01:12;2.83;;;1.47;;
5967;SDS011;3010;51.028;4.170;2023-04-12T15:03:38;2.20;;;1.27;;
5967;SDS011;3010;51.028;4.170;2023-04-12T15:06:05;4.43;;;1.80;;
5967;SDS011;3010;51.028;4.170;2023-04-12T15:08:32;4.70;;;1.70;;
5967;SDS011;3010;51.028;4.170;2023-04-12T15:10:58;5.20;;;1.80;;
5967;SDS011;3010;51.028;4.170;2023-04-12T15:13:25;6.40;;;2.20;;
5967;SDS011;3010;51.028;4.170;2023-04-12T15:15:51;6.27;;;1.90;;
5967;SDS011;3010;51.028;4.170;2023-04-12T15:18:18;4.97;;;1.93;;
5967;SDS011;3010;51.028;4.170;2023-04-12T15:20:44;5.77;;;2.27;;
5967;SDS011;3010;51.028;4.170;2023-04-12T15:23:11;5.13;;;2.13;;
5967;SDS011;3010;51.028;4.170;2023-04-12T15:25:37;4.00;;;1.70;;
5967;SDS011;3010;51.028;4.170;2023-04-12T15:28:04;4.57;;;1.60;;